createdAt,value
2017-09-27T00:02:54.158Z,1017.26
2017-09-27T00:07:50.087Z,1017.18
2017-09-27T00:12:46.491Z,1017.12
2017-09-27T00:17:42.590Z,1017.12
2017-09-27T00:22:38.546Z,1017.07
2017-09-27T00:27:35.092Z,1017.14
2017-09-27T00:32:30.684Z,1017.06
2017-09-27T00:37:26.338Z,1017.09
2017-09-27T00:42:22.380Z,1017.02
2017-09-27T00:47:18.330Z,1017.00
2017-09-27T00:52:15.760Z,1016.98
2017-09-27T00:57:13.327Z,1016.91
2017-09-27T01:02:08.408Z,1016.88
2017-09-27T01:07:05.500Z,1016.80
2017-09-27T01:12:00.926Z,1016.86
2017-09-27T01:16:57.732Z,1016.82
2017-09-27T01:21:53.464Z,1016.78
2017-09-27T01:26:49.669Z,1016.69
2017-09-27T01:31:45.543Z,1016.74
2017-09-27T01:36:41.330Z,1016.69
2017-09-27T01:41:37.499Z,1016.77
2017-09-27T01:46:34.352Z,1016.72
2017-09-27T01:51:30.810Z,1016.65
2017-09-27T01:56:26.733Z,1016.74
2017-09-27T02:01:23.899Z,1016.75
2017-09-27T02:06:19.554Z,1016.63
2017-09-27T02:11:15.609Z,1016.58
2017-09-27T02:16:11.364Z,1016.69
2017-09-27T02:21:07.467Z,1016.69
2017-09-27T02:26:03.320Z,1016.69
2017-09-27T02:31:01.143Z,1016.68
2017-09-27T02:35:56.467Z,1016.71
2017-09-27T02:40:53.356Z,1016.67
2017-09-27T02:45:48.946Z,1016.68
2017-09-27T02:50:44.860Z,1016.68
2017-09-27T02:55:40.776Z,1016.64
2017-09-27T03:00:36.896Z,1016.68
2017-09-27T03:05:32.789Z,1016.69
2017-09-27T03:10:28.508Z,1016.72
2017-09-27T03:15:24.048Z,1016.78
2017-09-27T03:20:20.245Z,1016.78
2017-09-27T03:25:16.300Z,1016.86
2017-09-27T03:30:12.025Z,1016.79
2017-09-27T03:35:08.020Z,1016.80
2017-09-27T03:40:03.920Z,1016.81
2017-09-27T03:45:00.805Z,1016.76
2017-09-27T03:49:56.440Z,1016.72
2017-09-27T03:54:52.329Z,1016.81
2017-09-27T03:59:48.278Z,1016.84
2017-09-27T04:04:45.306Z,1016.83
2017-09-27T04:09:40.923Z,1016.86
2017-09-27T04:14:36.773Z,1016.82
2017-09-27T04:19:32.424Z,1016.74
2017-09-27T04:24:30.194Z,1016.78
2017-09-27T04:29:25.376Z,1016.83
2017-09-27T04:34:21.389Z,1016.74
2017-09-27T04:39:19.040Z,1016.84
2017-09-27T04:44:14.624Z,1016.89
2017-09-27T04:49:11.452Z,1016.92
2017-09-27T04:54:07.869Z,1016.90
2017-09-27T04:59:03.741Z,1016.86
2017-09-27T05:04:00.621Z,1016.82
2017-09-27T05:08:55.864Z,1016.88
2017-09-27T05:13:52.156Z,1017.04
2017-09-27T05:18:48.689Z,1017.04
2017-09-27T05:23:44.535Z,1017.00
2017-09-27T05:28:40.523Z,1017.10
2017-09-27T05:33:36.399Z,1017.13
2017-09-27T05:38:32.179Z,1017.15
2017-09-27T05:43:27.737Z,1017.15
2017-09-27T05:48:24.590Z,1017.25
2017-09-27T05:53:21.299Z,1017.23
2017-09-27T05:58:16.726Z,1017.30
2017-09-27T06:03:12.212Z,1017.29
2017-09-27T06:08:08.952Z,1017.27
2017-09-27T06:13:04.963Z,1017.25
2017-09-27T06:18:00.850Z,1017.31
2017-09-27T06:22:56.945Z,1017.29
2017-09-27T06:27:53.298Z,1017.26
2017-09-27T06:32:49.294Z,1017.33
2017-09-27T06:37:45.085Z,1017.18
2017-09-27T06:42:41.936Z,1017.27
2017-09-27T06:47:38.553Z,1017.31
2017-09-27T06:52:34.893Z,1017.27
2017-09-27T06:57:32.282Z,1017.20
2017-09-27T07:02:29.053Z,1017.38
2017-09-27T07:07:25.468Z,1017.32
2017-09-27T07:12:21.699Z,1017.42
2017-09-27T07:17:18.450Z,1017.40
2017-09-27T07:22:14.179Z,1017.44
2017-09-27T07:27:11.145Z,1017.42
2017-09-27T07:32:07.741Z,1017.48
2017-09-27T07:37:03.342Z,1017.52
2017-09-27T07:41:59.271Z,1017.52
2017-09-27T07:46:55.030Z,1017.59
2017-09-27T07:51:51.257Z,1017.67
2017-09-27T07:56:47.359Z,1017.74
2017-09-27T08:01:43.543Z,1017.77
2017-09-27T08:06:39.467Z,1017.68
2017-09-27T08:11:35.330Z,1017.74
2017-09-27T08:16:31.316Z,1017.61
2017-09-27T08:21:27.307Z,1017.80
2017-09-27T08:26:24.534Z,1017.77
2017-09-27T08:31:20.812Z,1017.76
2017-09-27T08:36:17.083Z,1017.78
2017-09-27T08:41:12.676Z,1017.79
2017-09-27T08:46:10.369Z,1017.79
2017-09-27T08:51:07.314Z,1017.76
2017-09-27T08:56:04.330Z,1017.73
2017-09-27T09:01:00.777Z,1017.67
2017-09-27T09:05:56.907Z,1017.67
2017-09-27T09:10:54.058Z,1017.68
2017-09-27T09:15:50.560Z,1017.68
2017-09-27T09:20:47.352Z,1017.69
2017-09-27T09:25:42.736Z,1017.70
2017-09-27T09:30:39.086Z,1017.70
2017-09-27T09:35:34.901Z,1017.72
2017-09-27T09:40:31.775Z,1017.60
2017-09-27T09:45:27.673Z,1017.53
2017-09-27T09:50:23.549Z,1017.58
2017-09-27T09:55:20.308Z,1017.57
2017-09-27T10:00:16.360Z,1017.62
2017-09-27T10:05:12.771Z,1017.49
2017-09-27T10:10:08.770Z,1017.60
2017-09-27T10:15:05.140Z,1017.47
2017-09-27T10:20:01.150Z,1017.44
2017-09-27T10:24:57.601Z,1017.43
2017-09-27T10:29:54.216Z,1017.35
2017-09-27T10:34:50.083Z,1017.41
2017-09-27T10:39:46.944Z,1017.35
2017-09-27T10:44:43.548Z,1017.38
2017-09-27T10:49:40.832Z,1017.29
2017-09-27T10:54:37.600Z,1017.29
2017-09-27T10:59:34.452Z,1017.25
2017-09-27T11:04:31.191Z,1017.19
2017-09-27T11:09:27.708Z,1017.28
2017-09-27T11:14:24.167Z,1017.20
2017-09-27T11:19:20.722Z,1017.27
2017-09-27T11:24:16.580Z,1017.23
2017-09-27T11:29:12.451Z,1017.17
2017-09-27T11:34:08.192Z,1017.11
2017-09-27T11:39:04.473Z,1017.10
2017-09-27T11:44:01.048Z,1016.99
2017-09-27T11:48:56.590Z,1016.99
2017-09-27T11:53:53.554Z,1016.85
2017-09-27T11:58:48.754Z,1016.89
2017-09-27T12:03:44.513Z,1016.72
2017-09-27T12:08:40.377Z,1016.77
2017-09-27T12:13:36.262Z,1016.70
2017-09-27T12:18:33.021Z,1016.68
2017-09-27T12:23:29.147Z,1016.72
2017-09-27T12:28:25.332Z,1016.62
2017-09-27T12:33:20.503Z,1016.54
2017-09-27T12:38:16.253Z,1016.60
2017-09-27T12:43:11.780Z,1016.57
2017-09-27T12:48:07.511Z,1016.61
2017-09-27T12:53:04.334Z,1016.60
2017-09-27T12:58:00.198Z,1016.59
2017-09-27T13:02:55.761Z,1016.58
2017-09-27T13:07:53.575Z,1016.54
2017-09-27T13:12:50.545Z,1016.47
2017-09-27T13:17:47.236Z,1016.60
2017-09-27T13:22:42.758Z,1016.41
2017-09-27T13:27:38.721Z,1016.41
2017-09-27T13:32:34.989Z,1016.41
2017-09-27T13:37:31.060Z,1016.43
2017-09-27T13:42:28.053Z,1016.43
2017-09-27T13:47:23.861Z,1016.38
2017-09-27T13:52:19.486Z,1016.37
2017-09-27T13:57:15.869Z,1016.35
2017-09-27T14:02:12.686Z,1016.36
2017-09-27T14:07:09.525Z,1016.24
2017-09-27T14:12:05.185Z,1016.23
2017-09-27T14:17:01.025Z,1016.09
2017-09-27T14:21:57.946Z,1016.24
2017-09-27T14:26:53.432Z,1016.23
2017-09-27T14:31:49.260Z,1016.20
2017-09-27T14:36:45.513Z,1016.19
2017-09-27T14:41:42.422Z,1016.13
2017-09-27T14:46:38.462Z,1016.10
2017-09-27T14:51:35.638Z,1016.03
2017-09-27T14:56:31.442Z,1016.12
2017-09-27T15:01:28.455Z,1015.96
2017-09-27T15:06:25.330Z,1016.12
2017-09-27T15:11:22.185Z,1016.07
2017-09-27T15:16:18.859Z,1016.12
2017-09-27T15:21:15.651Z,1016.13
2017-09-27T15:26:11.200Z,1016.17
2017-09-27T15:31:07.003Z,1015.98
2017-09-27T15:36:02.923Z,1016.05
2017-09-27T15:40:58.512Z,1016.07
2017-09-27T15:45:55.213Z,1016.10
2017-09-27T15:50:50.829Z,1016.10
2017-09-27T15:55:46.174Z,1016.19
2017-09-27T16:00:42.026Z,1016.17
2017-09-27T16:05:37.799Z,1016.17
2017-09-27T16:10:33.979Z,1016.25
2017-09-27T16:15:30.813Z,1016.38
2017-09-27T16:20:26.375Z,1016.35
2017-09-27T16:25:22.982Z,1016.39
2017-09-27T16:30:20.143Z,1016.46
2017-09-27T16:35:15.641Z,1016.55
2017-09-27T16:40:12.291Z,1016.54
2017-09-27T16:45:09.871Z,1016.56
2017-09-27T16:50:06.364Z,1016.51
2017-09-27T16:55:01.729Z,1016.49
2017-09-27T16:59:57.617Z,1016.58
2017-09-27T17:04:53.729Z,1016.61
2017-09-27T17:09:49.359Z,1016.64
2017-09-27T17:14:45.132Z,1016.59
2017-09-27T17:19:41.188Z,1016.55
2017-09-27T17:24:37.708Z,1016.46
2017-09-27T17:29:33.554Z,1016.62
2017-09-27T17:34:29.196Z,1016.63
2017-09-27T17:39:24.825Z,1016.61
2017-09-27T17:44:20.460Z,1016.65
2017-09-27T17:49:16.119Z,1016.63
2017-09-27T17:54:12.340Z,1016.75
2017-09-27T17:59:08.155Z,1016.69
2017-09-27T18:04:04.139Z,1016.72
2017-09-27T18:09:00.023Z,1016.81
2017-09-27T18:13:55.863Z,1016.80
2017-09-27T18:18:51.538Z,1016.83
2017-09-27T18:23:47.323Z,1016.83
2017-09-27T18:28:43.200Z,1016.88
2017-09-27T18:33:39.018Z,1016.93
2017-09-27T18:38:34.844Z,1016.90
2017-09-27T18:43:30.633Z,1016.87
2017-09-27T18:48:26.496Z,1016.81
2017-09-27T18:53:23.454Z,1016.85
2017-09-27T18:58:19.142Z,1016.89
2017-09-27T19:03:16.006Z,1016.80
2017-09-27T19:08:11.479Z,1016.82
2017-09-27T19:13:07.250Z,1016.91
2017-09-27T19:18:03.051Z,1016.94
2017-09-27T19:22:58.943Z,1016.88
2017-09-27T19:27:54.888Z,1016.93
2017-09-27T19:32:50.682Z,1016.89
2017-09-27T19:37:47.637Z,1016.96
2017-09-27T19:42:44.096Z,1016.96
2017-09-27T19:47:40.504Z,1016.92
2017-09-27T19:52:36.090Z,1016.93
2017-09-27T19:57:33.710Z,1016.91
2017-09-27T20:02:30.977Z,1016.95
2017-09-27T20:07:26.450Z,1016.98
2017-09-27T20:12:21.979Z,1016.90
2017-09-27T20:17:17.771Z,1016.89
2017-09-27T20:22:13.748Z,1016.90
2017-09-27T20:27:09.363Z,1016.83
2017-09-27T20:32:05.366Z,1016.81
2017-09-27T20:37:02.379Z,1016.86
2017-09-27T20:41:57.499Z,1016.82
2017-09-27T20:46:54.364Z,1016.80
2017-09-27T20:51:49.904Z,1016.84
2017-09-27T20:56:48.404Z,1016.86
2017-09-27T21:01:43.706Z,1016.82
2017-09-27T21:06:39.748Z,1016.80
2017-09-27T21:11:36.768Z,1016.79
2017-09-27T21:16:32.501Z,1016.78
2017-09-27T21:21:28.249Z,1016.77
2017-09-27T21:26:24.550Z,1016.82
2017-09-27T21:31:21.296Z,1016.76
2017-09-27T21:36:16.666Z,1016.79
2017-09-27T21:41:12.353Z,1016.74
2017-09-27T21:46:08.177Z,1016.74
2017-09-27T21:51:03.813Z,1016.58
2017-09-27T21:55:59.898Z,1016.68
2017-09-27T22:00:55.830Z,1016.56
2017-09-27T22:05:51.604Z,1016.65
2017-09-27T22:10:47.331Z,1016.54
2017-09-27T22:15:44.674Z,1016.60
2017-09-27T22:20:40.154Z,1016.60
2017-09-27T22:25:37.952Z,1016.60
2017-09-27T22:30:35.179Z,1016.57
2017-09-27T22:35:31.317Z,1016.52
2017-09-27T22:40:27.487Z,1016.54
2017-09-27T22:45:23.179Z,1016.51
2017-09-27T22:50:18.729Z,1016.60
2017-09-27T22:55:15.294Z,1016.59
2017-09-27T23:00:12.129Z,1016.65
2017-09-27T23:05:07.501Z,1016.63
2017-09-27T23:10:03.352Z,1016.66
2017-09-27T23:14:58.929Z,1016.70
2017-09-27T23:19:55.086Z,1016.72
2017-09-27T23:24:51.795Z,1016.61
2017-09-27T23:29:47.393Z,1016.60
2017-09-27T23:34:43.178Z,1016.48
2017-09-27T23:39:39.653Z,1016.56
2017-09-27T23:44:36.281Z,1016.48
2017-09-27T23:49:32.236Z,1016.49
2017-09-27T23:54:28.230Z,1016.50
2017-09-27T23:59:23.966Z,1016.49
